Time;durP1;ratioP1;P1;durP2;ratioP2;P2;SDS_P1;SDS_P2;PMS_P1;PMS_P2;Temp;Humidity;BMP_temperature;BMP_pressure;BME280_temperature;BME280_humidity;BME280_pressure;Samples;Min_cycle;Max_cycle;Signal;HPM_P1;HPM_P2
2024/01/13 00:02:21;;;;;;;11.40;7.20;;;2.00;99.90;;;;;;5052314;28;20414;-60
2024/01/13 00:04:50;;;;;;;13.07;7.33;;;2.00;99.90;;;;;;5054516;28;20183;-61
2024/01/13 00:07:16;;;;;;;12.00;6.57;;;2.00;99.90;;;;;;5037447;28;20179;-60
2024/01/13 00:09:41;;;;;;;16.73;8.13;;;2.10;99.90;;;;;;5055218;28;20413;-60
2024/01/13 00:12:07;;;;;;;11.90;7.23;;;2.10;99.90;;;;;;5050282;28;20426;-60
2024/01/13 00:14:32;;;;;;;14.30;7.63;;;2.10;99.90;;;;;;5051970;28;20202;-61
2024/01/13 00:16:58;;;;;;;9.03;6.40;;;2.10;99.90;;;;;;5052269;28;20327;-61
2024/01/13 00:19:23;;;;;;;9.80;7.33;;;2.10;99.90;;;;;;5058083;28;20174;-60
2024/01/13 00:21:49;;;;;;;14.67;7.13;;;2.10;99.90;;;;;;5054797;28;20194;-62
2024/01/13 00:24:15;;;;;;;9.23;5.90;;;2.10;99.90;;;;;;5055036;28;20210;-60
2024/01/13 00:26:41;;;;;;;9.83;5.73;;;2.10;99.90;;;;;;5041987;28;20179;-61
2024/01/13 00:29:08;;;;;;;14.90;7.07;;;2.10;99.90;;;;;;5041915;28;20182;-59
2024/01/13 00:31:34;;;;;;;12.67;7.30;;;2.10;99.90;;;;;;5052336;28;20418;-59
2024/01/13 00:34:02;;;;;;;8.20;5.83;;;2.10;99.90;;;;;;5055357;28;20413;-60
2024/01/13 00:36:28;;;;;;;16.60;6.30;;;2.10;99.90;;;;;;5054529;28;20534;-60
2024/01/13 00:39:02;;;;;;;8.07;5.40;;;2.10;99.90;;;;;;5033544;28;20417;-60
2024/01/13 00:41:28;;;;;;;11.13;6.50;;;2.10;99.90;;;;;;5051473;28;20475;-60
2024/01/13 00:44:00;;;;;;;12.23;6.57;;;2.20;99.90;;;;;;5056445;28;20412;-60
2024/01/13 00:46:29;;;;;;;11.10;5.37;;;2.10;99.90;;;;;;5045042;28;20585;-60
2024/01/13 00:48:57;;;;;;;8.23;6.17;;;2.10;99.90;;;;;;5049279;28;20433;-62
2024/01/13 00:51:23;;;;;;;7.97;6.03;;;2.20;99.90;;;;;;5053318;28;20420;-60
2024/01/13 00:53:51;;;;;;;11.07;6.70;;;2.20;99.90;;;;;;5052239;28;20425;-60
2024/01/13 00:56:22;;;;;;;11.37;6.83;;;2.20;99.90;;;;;;5046623;28;20432;-60
2024/01/13 00:58:50;;;;;;;9.03;5.90;;;2.20;99.90;;;;;;5059439;28;20926;-61
2024/01/13 01:01:16;;;;;;;7.90;5.93;;;2.20;99.90;;;;;;5056231;28;20440;-61
2024/01/13 01:03:43;;;;;;;10.73;5.47;;;2.30;99.90;;;;;;5057717;28;20409;-61
2024/01/13 01:06:09;;;;;;;8.70;5.27;;;2.30;99.90;;;;;;5052964;28;20931;-61
2024/01/13 01:08:34;;;;;;;15.33;5.90;;;2.30;99.90;;;;;;5050425;28;20405;-61
2024/01/13 01:11:03;;;;;;;16.73;6.40;;;2.30;99.90;;;;;;5054029;28;20413;-61
2024/01/13 01:13:29;;;;;;;18.57;6.13;;;2.30;99.90;;;;;;5056927;28;20174;-61
2024/01/13 01:15:54;;;;;;;15.37;6.03;;;2.20;99.90;;;;;;5060311;28;20798;-61
2024/01/13 01:18:20;;;;;;;18.80;6.80;;;2.30;99.90;;;;;;5052202;28;20179;-61
2024/01/13 01:20:46;;;;;;;10.63;6.30;;;2.40;99.90;;;;;;5035182;28;20702;-61
2024/01/13 01:23:11;;;;;;;12.37;5.27;;;2.30;99.90;;;;;;5053058;28;20422;-61
2024/01/13 01:25:37;;;;;;;11.30;5.20;;;2.40;99.90;;;;;;5055223;28;20274;-62
2024/01/13 01:28:03;;;;;;;8.73;5.23;;;2.30;99.90;;;;;;5058498;28;20178;-61
2024/01/13 01:30:31;;;;;;;11.03;4.60;;;2.30;99.90;;;;;;5051256;28;20183;-60
2024/01/13 01:33:04;;;;;;;10.33;4.97;;;2.40;99.90;;;;;;5051031;28;20185;-61
2024/01/13 01:35:30;;;;;;;8.40;4.37;;;2.40;99.90;;;;;;5049936;28;20445;-61
2024/01/13 01:37:56;;;;;;;10.57;5.47;;;2.40;99.90;;;;;;5052535;28;20409;-61
2024/01/13 01:40:28;;;;;;;10.30;5.23;;;2.40;99.90;;;;;;5054367;28;20552;-62
2024/01/13 01:42:54;;;;;;;7.50;4.40;;;2.40;99.90;;;;;;5053334;28;20408;-58
2024/01/13 01:45:26;;;;;;;6.10;3.80;;;2.40;99.90;;;;;;5046278;28;20433;-60
2024/01/13 01:47:53;;;;;;;9.70;5.20;;;2.50;99.90;;;;;;5054622;28;20405;-60
2024/01/13 01:50:19;;;;;;;12.73;5.43;;;2.40;99.90;;;;;;5057788;28;20420;-60
2024/01/13 01:52:46;;;;;;;8.93;5.00;;;2.40;99.90;;;;;;5058291;28;20504;-61
2024/01/13 01:55:12;;;;;;;12.70;4.40;;;2.40;99.90;;;;;;5056950;28;20449;-60
2024/01/13 01:57:40;;;;;;;8.40;4.90;;;2.40;99.90;;;;;;5052259;28;20471;-62
2024/01/13 02:00:09;;;;;;;10.83;4.33;;;2.30;99.90;;;;;;5057437;28;20413;-58
2024/01/13 02:02:35;;;;;;;17.20;5.17;;;2.30;99.90;;;;;;5054065;28;20867;-60
2024/01/13 02:05:02;;;;;;;10.87;5.10;;;2.40;99.90;;;;;;5057831;28;20429;-60
2024/01/13 02:07:28;;;;;;;9.00;5.40;;;2.40;99.90;;;;;;5061868;28;20492;-59
2024/01/13 02:09:54;;;;;;;12.43;6.50;;;2.40;99.90;;;;;;5062344;28;20408;-59
2024/01/13 02:12:19;;;;;;;7.63;5.53;;;2.40;99.90;;;;;;5063505;28;20751;-59
2024/01/13 02:14:45;;;;;;;14.67;5.47;;;2.40;99.90;;;;;;5060911;28;20428;-60
2024/01/13 02:17:11;;;;;;;8.00;4.80;;;2.40;99.90;;;;;;5052913;28;20167;-61
2024/01/13 02:19:37;;;;;;;11.60;5.30;;;2.40;99.90;;;;;;5055186;28;20223;-60
2024/01/13 02:22:02;;;;;;;9.80;3.93;;;2.40;99.90;;;;;;5053761;28;20205;-61
2024/01/13 02:24:28;;;;;;;9.50;4.93;;;2.40;99.90;;;;;;5053701;28;20248;-61
2024/01/13 02:26:53;;;;;;;10.00;4.50;;;2.40;99.90;;;;;;5061771;28;20226;-61
2024/01/13 02:29:19;;;;;;;7.00;5.50;;;2.40;99.90;;;;;;5056865;28;20662;-60
2024/01/13 02:31:45;;;;;;;7.53;4.00;;;2.40;99.90;;;;;;5054537;28;20301;-61
2024/01/13 02:34:10;;;;;;;11.97;4.87;;;2.50;99.90;;;;;;5036780;28;20182;-61
2024/01/13 02:36:36;;;;;;;5.77;4.10;;;2.50;99.90;;;;;;5059700;28;20538;-60
2024/01/13 02:39:02;;;;;;;7.50;4.43;;;2.40;99.90;;;;;;5059241;28;20268;-61
2024/01/13 02:41:28;;;;;;;7.10;4.23;;;2.40;99.90;;;;;;5047106;28;20271;-60
2024/01/13 02:43:53;;;;;;;5.93;4.73;;;2.40;99.90;;;;;;5064501;28;20852;-60
2024/01/13 02:46:19;;;;;;;7.47;4.47;;;2.40;99.90;;;;;;5054079;28;20273;-60
2024/01/13 02:48:51;;;;;;;5.63;4.20;;;2.50;99.90;;;;;;5048863;28;20622;-61
2024/01/13 02:51:18;;;;;;;10.73;4.80;;;2.50;99.90;;;;;;5058908;28;20186;-61
2024/01/13 02:53:44;;;;;;;6.07;3.00;;;2.50;99.90;;;;;;5057165;28;20441;-59
2024/01/13 02:56:16;;;;;;;11.50;3.93;;;2.40;99.90;;;;;;5059020;28;20910;-61
2024/01/13 02:58:44;;;;;;;6.50;3.80;;;2.40;99.90;;;;;;5057378;28;20424;-61
2024/01/13 03:01:11;;;;;;;6.83;4.17;;;2.40;99.90;;;;;;5056495;28;20449;-62
2024/01/13 03:03:37;;;;;;;7.07;4.10;;;2.40;99.90;;;;;;5053372;28;20916;-61
2024/01/13 03:06:04;;;;;;;9.00;4.70;;;2.50;99.90;;;;;;5054954;28;20516;-62
2024/01/13 03:08:30;;;;;;;5.80;3.70;;;2.50;99.90;;;;;;5055903;28;20420;-61
2024/01/13 03:10:59;;;;;;;11.23;4.77;;;2.50;99.90;;;;;;5047774;28;20403;-61
2024/01/13 03:13:24;;;;;;;6.57;4.13;;;2.50;99.90;;;;;;5048869;28;20500;-61
2024/01/13 03:15:50;;;;;;;6.67;3.70;;;2.50;99.90;;;;;;5056441;28;20511;-61
2024/01/13 03:18:16;;;;;;;3.93;3.50;;;2.50;99.90;;;;;;5051233;28;20179;-61
2024/01/13 03:20:41;;;;;;;8.77;3.93;;;2.50;99.90;;;;;;5056301;28;20204;-61
2024/01/13 03:23:07;;;;;;;10.63;3.60;;;2.50;99.90;;;;;;5054002;28;20568;-61
2024/01/13 03:25:33;;;;;;;7.20;3.20;;;2.50;99.90;;;;;;5055593;28;20210;-61
2024/01/13 03:27:58;;;;;;;7.80;4.60;;;2.40;99.90;;;;;;5056215;28;20220;-61
2024/01/13 03:30:24;;;;;;;6.87;3.20;;;2.40;99.90;;;;;;5055219;28;20186;-61
2024/01/13 03:32:49;;;;;;;8.20;4.37;;;2.50;99.90;;;;;;5039057;28;20177;-62
2024/01/13 03:35:15;;;;;;;4.10;3.50;;;2.50;99.90;;;;;;5058681;28;20289;-61
2024/01/13 03:37:40;;;;;;;5.80;4.20;;;2.40;99.90;;;;;;5059812;28;20170;-61
2024/01/13 03:40:07;;;;;;;6.40;3.50;;;2.40;99.90;;;;;;5055624;28;20666;-62
2024/01/13 03:42:32;;;;;;;4.20;3.00;;;2.40;99.90;;;;;;5053318;28;20201;-61
2024/01/13 03:44:58;;;;;;;5.87;3.40;;;2.30;99.90;;;;;;5056690;28;20797;-62
2024/01/13 03:47:24;;;;;;;6.77;3.87;;;2.40;99.90;;;;;;5053320;28;20175;-62
2024/01/13 03:49:49;;;;;;;6.47;4.57;;;2.50;99.90;;;;;;5055692;28;20219;-61
2024/01/13 03:52:15;;;;;;;10.90;4.53;;;2.50;99.90;;;;;;5053108;28;20505;-61
2024/01/13 03:54:41;;;;;;;9.00;6.97;;;2.30;99.90;;;;;;5051682;28;20234;-61
2024/01/13 03:57:07;;;;;;;5.87;4.73;;;2.20;99.90;;;;;;5057713;28;20645;-61
2024/01/13 03:59:33;;;;;;;6.70;4.27;;;2.30;99.90;;;;;;5056158;28;20463;-61
2024/01/13 04:01:58;;;;;;;5.10;4.60;;;2.30;99.90;;;;;;5054793;28;20286;-61
2024/01/13 04:04:24;;;;;;;9.10;4.30;;;2.30;99.90;;;;;;5051942;28;20209;-61
2024/01/13 04:06:50;;;;;;;6.30;5.70;;;2.20;99.90;;;;;;5057227;28;20175;-61
2024/01/13 04:09:15;;;;;;;16.80;6.07;;;2.20;99.90;;;;;;5051475;28;20421;-61
2024/01/13 04:11:41;;;;;;;6.47;4.07;;;2.20;99.90;;;;;;5058457;28;20175;-62
2024/01/13 04:14:06;;;;;;;5.23;4.47;;;2.20;99.90;;;;;;5052500;28;20262;-61
2024/01/13 04:16:32;;;;;;;12.47;5.47;;;2.20;99.90;;;;;;5053697;28;20175;-60
2024/01/13 04:18:58;;;;;;;6.50;5.47;;;2.20;99.90;;;;;;5052055;28;20198;-61
2024/01/13 04:21:23;;;;;;;7.27;3.80;;;2.20;99.90;;;;;;5051491;28;20213;-61
2024/01/13 04:23:50;;;;;;;6.90;4.40;;;2.20;99.90;;;;;;5059566;28;20217;-61
2024/01/13 04:26:16;;;;;;;5.63;4.03;;;2.20;99.90;;;;;;5051837;28;20183;-61
2024/01/13 04:28:41;;;;;;;7.63;5.00;;;2.20;99.90;;;;;;5051511;28;20896;-60
2024/01/13 04:31:07;;;;;;;6.03;4.33;;;2.20;99.90;;;;;;5056279;28;20461;-56
2024/01/13 04:33:32;;;;;;;5.70;4.00;;;2.20;99.90;;;;;;5056389;28;20166;-60
2024/01/13 04:35:58;;;;;;;5.10;3.90;;;2.20;99.90;;;;;;5055105;28;20194;-61
2024/01/13 04:38:24;;;;;;;5.87;4.10;;;2.20;99.90;;;;;;5054331;28;20627;-60
2024/01/13 04:40:49;;;;;;;6.80;3.83;;;2.20;99.90;;;;;;5053561;28;20617;-58
2024/01/13 04:43:15;;;;;;;7.40;4.60;;;2.10;99.90;;;;;;5053806;28;20262;-61
2024/01/13 04:45:40;;;;;;;6.90;4.80;;;2.10;99.90;;;;;;5057846;28;20536;-61
2024/01/13 04:48:06;;;;;;;6.47;4.47;;;2.10;99.90;;;;;;5056197;28;20174;-61
2024/01/13 04:50:32;;;;;;;6.27;4.50;;;2.20;99.90;;;;;;5050831;28;20183;-60
2024/01/13 04:52:57;;;;;;;4.83;4.17;;;2.10;99.90;;;;;;5065174;28;20427;-60
2024/01/13 04:55:23;;;;;;;7.93;5.30;;;2.20;99.90;;;;;;5053505;28;20221;-61
2024/01/13 04:57:48;;;;;;;5.50;3.73;;;2.10;99.90;;;;;;5061655;28;20238;-61
2024/01/13 05:00:15;;;;;;;5.77;4.03;;;2.10;99.90;;;;;;5053213;28;20721;-61
2024/01/13 05:02:40;;;;;;;5.63;3.87;;;2.20;99.90;;;;;;5053867;28;20258;-60
2024/01/13 05:05:06;;;;;;;4.63;3.60;;;2.20;99.90;;;;;;5056049;28;20520;-61
2024/01/13 05:07:32;;;;;;;4.50;3.30;;;2.10;99.90;;;;;;5050987;28;20178;-61
2024/01/13 05:09:58;;;;;;;7.50;4.57;;;2.10;99.90;;;;;;5057498;28;20167;-61
2024/01/13 05:12:23;;;;;;;4.70;4.30;;;2.10;99.90;;;;;;5060585;28;20844;-60
2024/01/13 05:14:49;;;;;;;7.47;4.27;;;2.10;99.90;;;;;;5055616;28;20199;-60
2024/01/13 05:17:15;;;;;;;5.27;3.83;;;2.20;99.90;;;;;;5059544;28;20221;-61
2024/01/13 05:19:40;;;;;;;4.30;3.80;;;2.20;99.90;;;;;;5061835;28;20166;-60
2024/01/13 05:22:06;;;;;;;7.53;5.47;;;2.20;99.90;;;;;;5050226;28;20198;-61
2024/01/13 05:24:31;;;;;;;6.13;3.33;;;2.10;99.90;;;;;;5060583;28;20224;-60
2024/01/13 05:26:57;;;;;;;8.73;3.90;;;2.20;99.90;;;;;;5061894;28;20182;-60
2024/01/13 05:29:23;;;;;;;7.03;3.80;;;2.20;99.90;;;;;;5053307;28;20696;-59
2024/01/13 05:31:48;;;;;;;4.73;3.40;;;2.10;99.90;;;;;;5062050;28;20178;-59
2024/01/13 05:34:14;;;;;;;5.40;4.33;;;2.10;99.90;;;;;;5060040;28;20202;-60
2024/01/13 05:36:39;;;;;;;6.80;3.30;;;2.10;99.90;;;;;;5057754;28;20175;-61
2024/01/13 05:39:05;;;;;;;5.30;3.40;;;2.10;99.90;;;;;;5057240;28;20183;-61
2024/01/13 05:41:31;;;;;;;4.50;3.40;;;2.10;99.90;;;;;;5058984;28;20206;-60
2024/01/13 05:43:56;;;;;;;5.07;4.30;;;2.10;99.90;;;;;;5056715;28;20493;-60
2024/01/13 05:46:22;;;;;;;4.67;3.67;;;2.10;99.90;;;;;;5056586;28;20186;-60
2024/01/13 05:48:48;;;;;;;3.97;3.17;;;2.20;99.90;;;;;;5063395;28;20558;-60
2024/01/13 05:51:13;;;;;;;4.10;3.37;;;2.20;99.90;;;;;;5060425;28;20175;-60
2024/01/13 05:53:39;;;;;;;3.40;3.10;;;2.20;99.90;;;;;;5061689;28;20451;-60
2024/01/13 05:56:06;;;;;;;4.30;3.90;;;2.20;99.90;;;;;;5062896;28;20217;-60
2024/01/13 05:58:32;;;;;;;5.00;4.27;;;2.10;99.90;;;;;;5056636;28;20171;-60
2024/01/13 06:00:58;;;;;;;7.20;4.40;;;2.20;99.90;;;;;;5061344;28;20449;-60
2024/01/13 06:03:24;;;;;;;5.57;4.50;;;2.10;99.90;;;;;;5054389;28;20468;-60
2024/01/13 06:05:49;;;;;;;9.10;6.20;;;2.10;99.90;;;;;;5066491;28;20458;-60
2024/01/13 06:08:15;;;;;;;7.40;5.00;;;2.20;99.90;;;;;;5058330;28;20557;-60
2024/01/13 06:10:40;;;;;;;7.47;5.57;;;2.20;99.90;;;;;;5059991;28;20232;-61
2024/01/13 06:13:07;;;;;;;6.00;4.43;;;2.20;99.90;;;;;;5055070;28;20166;-61
2024/01/13 06:15:32;;;;;;;7.07;4.33;;;2.20;99.90;;;;;;5055505;28;20664;-60
2024/01/13 06:17:58;;;;;;;9.27;5.70;;;2.30;99.90;;;;;;5055777;28;20413;-61
2024/01/13 06:20:23;;;;;;;6.80;5.60;;;2.30;99.90;;;;;;5059676;28;20201;-60
2024/01/13 06:22:49;;;;;;;9.23;5.63;;;2.20;99.90;;;;;;5057084;28;20183;-60
2024/01/13 06:25:15;;;;;;;8.77;6.00;;;2.10;99.90;;;;;;5054061;28;20183;-60
2024/01/13 06:27:40;;;;;;;6.23;5.20;;;2.10;99.90;;;;;;5057500;28;20766;-61
2024/01/13 06:30:08;;;;;;;9.37;7.40;;;2.20;99.90;;;;;;5053653;28;20171;-61
2024/01/13 06:32:34;;;;;;;7.97;5.67;;;2.10;99.90;;;;;;5054657;28;20167;-61
2024/01/13 06:34:59;;;;;;;12.30;6.50;;;2.10;99.90;;;;;;5021312;28;20478;-61
2024/01/13 06:37:25;;;;;;;9.67;6.43;;;2.00;99.90;;;;;;5059509;28;20175;-61
2024/01/13 06:39:50;;;;;;;8.10;6.73;;;2.00;99.90;;;;;;5054980;28;20646;-60
2024/01/13 06:42:16;;;;;;;8.47;5.03;;;2.00;99.90;;;;;;5037370;28;20199;-61
2024/01/13 06:44:41;;;;;;;6.30;4.83;;;2.00;99.90;;;;;;5054738;28;20213;-61
2024/01/13 06:47:07;;;;;;;6.50;5.73;;;2.10;99.90;;;;;;5059306;28;20198;-60
2024/01/13 06:49:33;;;;;;;8.10;5.93;;;2.10;99.90;;;;;;5056330;28;20208;-61
2024/01/13 06:52:02;;;;;;;7.50;6.03;;;2.10;99.90;;;;;;5066127;28;20205;-60
2024/01/13 06:54:27;;;;;;;10.93;7.40;;;2.10;99.90;;;;;;5058163;28;20468;-60
2024/01/13 06:56:53;;;;;;;9.13;5.40;;;2.10;99.90;;;;;;5053579;28;20422;-60
2024/01/13 06:59:19;;;;;;;7.57;5.00;;;2.10;99.90;;;;;;5060750;28;20174;-60
2024/01/13 07:01:47;;;;;;;6.80;5.00;;;2.10;99.90;;;;;;5055932;28;20199;-60
2024/01/13 07:04:13;;;;;;;7.87;5.53;;;2.10;99.90;;;;;;5058966;28;20503;-62
2024/01/13 07:06:38;;;;;;;7.13;4.80;;;2.10;99.90;;;;;;5058186;28;21011;-59
2024/01/13 07:09:04;;;;;;;9.20;6.23;;;2.00;99.90;;;;;;5054308;28;20206;-58
2024/01/13 07:11:30;;;;;;;6.80;5.17;;;2.10;99.90;;;;;;5065996;28;20174;-61
2024/01/13 07:13:55;;;;;;;7.10;4.47;;;2.10;99.90;;;;;;5055353;28;20179;-60
2024/01/13 07:16:21;;;;;;;8.83;5.00;;;2.10;99.90;;;;;;5063581;28;20688;-60
2024/01/13 07:18:46;;;;;;;6.77;4.67;;;2.10;99.90;;;;;;5057142;28;20183;-60
2024/01/13 07:21:12;;;;;;;6.20;5.40;;;2.10;99.90;;;;;;5049277;28;20219;-60
2024/01/13 07:23:37;;;;;;;6.33;5.00;;;2.10;99.90;;;;;;5051648;28;20163;-60
2024/01/13 07:26:03;;;;;;;5.33;4.23;;;2.20;99.90;;;;;;5062667;28;20601;-60
2024/01/13 07:28:29;;;;;;;6.00;4.57;;;2.10;99.90;;;;;;5063145;28;20545;-60
2024/01/13 07:30:55;;;;;;;5.97;4.83;;;2.10;99.90;;;;;;5063431;28;20257;-60
2024/01/13 07:33:21;;;;;;;6.67;4.37;;;2.20;99.90;;;;;;5053901;28;20508;-59
2024/01/13 07:35:46;;;;;;;4.83;4.10;;;2.20;99.90;;;;;;5059873;28;20195;-63
2024/01/13 07:38:13;;;;;;;4.13;3.13;;;2.30;99.90;;;;;;5049046;28;20274;-60
2024/01/13 07:40:39;;;;;;;4.17;3.77;;;2.30;99.90;;;;;;5055860;28;20217;-62
2024/01/13 07:43:05;;;;;;;4.23;3.83;;;2.30;99.90;;;;;;5066472;28;20525;-63
2024/01/13 07:45:30;;;;;;;7.97;5.00;;;2.30;99.90;;;;;;5056603;28;20199;-60
2024/01/13 07:47:56;;;;;;;5.53;4.03;;;2.30;99.90;;;;;;5058305;28;20420;-61
2024/01/13 07:50:22;;;;;;;6.33;3.70;;;2.20;99.90;;;;;;5049777;28;20258;-60
2024/01/13 07:52:47;;;;;;;3.83;3.43;;;2.30;99.90;;;;;;5058036;28;20174;-61
2024/01/13 07:55:13;;;;;;;6.70;4.20;;;2.20;99.90;;;;;;5057855;28;20226;-60
2024/01/13 07:57:38;;;;;;;6.00;4.10;;;2.20;99.90;;;;;;5049463;28;20171;-60
2024/01/13 08:00:05;;;;;;;6.37;3.30;;;2.30;99.90;;;;;;5053348;28;20167;-60
2024/01/13 08:02:31;;;;;;;4.10;3.47;;;2.20;99.90;;;;;;5055917;28;20800;-59
2024/01/13 08:04:56;;;;;;;3.97;3.50;;;2.20;99.90;;;;;;5061871;28;20516;-60
2024/01/13 08:07:25;;;;;;;4.13;2.90;;;2.20;99.90;;;;;;5059194;28;20198;-61
2024/01/13 08:09:51;;;;;;;3.07;2.40;;;2.30;99.90;;;;;;5046872;28;20175;-60
2024/01/13 08:12:16;;;;;;;3.53;3.20;;;2.30;99.90;;;;;;5057844;28;20436;-59
2024/01/13 08:14:42;;;;;;;3.93;3.03;;;2.20;99.90;;;;;;5053487;28;20521;-59
2024/01/13 08:17:08;;;;;;;9.23;2.80;;;2.30;99.90;;;;;;5049523;28;20177;-60
2024/01/13 08:19:35;;;;;;;2.90;2.57;;;2.30;99.90;;;;;;5052126;28;20179;-60
2024/01/13 08:22:00;;;;;;;3.40;2.40;;;2.40;99.90;;;;;;5061969;28;20515;-60
2024/01/13 08:24:26;;;;;;;3.70;2.83;;;2.40;99.90;;;;;;5050030;28;20822;-60
2024/01/13 08:26:52;;;;;;;4.80;2.70;;;2.40;99.90;;;;;;5054448;28;20182;-61
2024/01/13 08:29:18;;;;;;;3.03;2.63;;;2.40;99.90;;;;;;5030146;28;20262;-60
2024/01/13 08:31:47;;;;;;;2.93;2.63;;;2.40;99.90;;;;;;5053035;28;20225;-60
2024/01/13 08:34:13;;;;;;;2.63;1.90;;;2.50;99.90;;;;;;5046598;28;20204;-60
2024/01/13 08:36:41;;;;;;;4.03;2.67;;;2.60;99.90;;;;;;5052535;28;20920;-59
2024/01/13 08:39:06;;;;;;;2.57;2.37;;;2.60;99.90;;;;;;5027581;28;20448;-60
2024/01/13 08:41:33;;;;;;;3.33;3.03;;;2.50;99.90;;;;;;5045021;28;20461;-59
2024/01/13 08:43:59;;;;;;;8.53;2.50;;;2.50;99.90;;;;;;5050153;28;20622;-60
2024/01/13 08:46:26;;;;;;;3.70;2.70;;;2.50;99.90;;;;;;5054973;28;20441;-60
2024/01/13 08:48:52;;;;;;;2.63;2.43;;;2.50;99.90;;;;;;5043055;28;20440;-61
2024/01/13 08:51:18;;;;;;;3.50;2.87;;;2.70;99.90;;;;;;5046694;28;20433;-58
2024/01/13 08:53:45;;;;;;;4.30;2.83;;;2.50;99.90;;;;;;5056578;28;20412;-60
2024/01/13 08:56:11;;;;;;;4.27;2.87;;;2.60;99.90;;;;;;5043755;28;20202;-61
2024/01/13 08:58:38;;;;;;;3.23;2.90;;;2.60;99.90;;;;;;5039583;28;20430;-60
2024/01/13 09:01:04;;;;;;;3.03;2.43;;;2.70;99.90;;;;;;5046790;28;20238;-61
2024/01/13 09:03:30;;;;;;;2.90;2.40;;;2.70;99.90;;;;;;5042732;28;20512;-60
2024/01/13 09:05:56;;;;;;;1.90;1.80;;;2.70;99.90;;;;;;5033873;28;20458;-61
2024/01/13 09:08:22;;;;;;;3.03;1.97;;;2.60;99.90;;;;;;5053899;28;20421;-60
2024/01/13 09:10:47;;;;;;;2.43;1.90;;;2.60;99.90;;;;;;5060042;28;20921;-60
2024/01/13 09:13:13;;;;;;;3.57;2.43;;;2.50;99.90;;;;;;5055530;28;20228;-61
2024/01/13 09:15:39;;;;;;;3.10;2.80;;;2.70;99.90;;;;;;5057127;28;20283;-60
2024/01/13 09:18:06;;;;;;;3.27;2.77;;;2.70;99.90;;;;;;5046712;28;20425;-61
2024/01/13 09:20:32;;;;;;;2.97;2.67;;;2.80;99.90;;;;;;5050398;28;20199;-61
2024/01/13 09:22:58;;;;;;;2.20;2.10;;;2.70;99.90;;;;;;5050495;28;20414;-61
2024/01/13 09:25:23;;;;;;;3.97;2.50;;;2.80;99.90;;;;;;5060260;28;20194;-61
2024/01/13 09:27:49;;;;;;;3.20;2.47;;;2.90;99.90;;;;;;5055001;28;20170;-61
2024/01/13 09:30:15;;;;;;;3.27;2.40;;;2.80;99.90;;;;;;5058327;28;20206;-61
2024/01/13 09:32:42;;;;;;;2.50;2.30;;;3.00;99.90;;;;;;5064155;28;20186;-61
2024/01/13 09:35:08;;;;;;;5.03;3.13;;;2.80;99.90;;;;;;5051529;28;20491;-61
2024/01/13 09:37:34;;;;;;;2.77;2.57;;;3.00;99.90;;;;;;5064057;28;20436;-61
2024/01/13 09:40:00;;;;;;;2.90;2.27;;;2.90;99.90;;;;;;5065432;28;20412;-61
2024/01/13 09:42:55;;;;;;;4.03;2.90;;;2.80;99.90;;;;;;5060738;28;20453;-59
2024/01/13 09:45:22;;;;;;;2.30;2.10;;;2.80;99.90;;;;;;5044003;28;20207;-59
2024/01/13 09:47:48;;;;;;;2.90;2.63;;;2.80;99.90;;;;;;5056023;28;20409;-60
2024/01/13 09:50:14;;;;;;;2.47;2.10;;;2.80;99.90;;;;;;5052949;28;20756;-61
2024/01/13 09:52:40;;;;;;;3.10;2.40;;;2.90;99.90;;;;;;5066584;28;20766;-59
2024/01/13 09:55:09;;;;;;;2.33;2.10;;;3.00;99.90;;;;;;5035690;28;20214;-61
2024/01/13 09:57:35;;;;;;;3.17;2.87;;;3.20;99.90;;;;;;5049201;28;20416;-61
2024/01/13 10:00:02;;;;;;;3.20;2.60;;;3.10;99.90;;;;;;5054486;28;20825;-63
2024/01/13 10:02:28;;;;;;;3.10;2.80;;;3.00;99.90;;;;;;5063734;28;20297;-65
2024/01/13 10:04:54;;;;;;;3.80;2.23;;;3.00;99.90;;;;;;5072316;28;20524;-63
2024/01/13 10:07:20;;;;;;;3.27;2.77;;;2.90;99.90;;;;;;5037989;28;20193;-62
2024/01/13 10:09:46;;;;;;;3.27;3.00;;;2.90;99.90;;;;;;5060111;28;20180;-64
2024/01/13 10:12:11;;;;;;;3.00;2.37;;;3.00;99.90;;;;;;5060011;28;20474;-65
2024/01/13 10:14:40;;;;;;;2.73;2.40;;;3.20;99.90;;;;;;5062295;28;20198;-65
2024/01/13 10:17:06;;;;;;;3.83;3.37;;;3.10;99.90;;;;;;5039272;28;20209;-66
2024/01/13 10:19:42;;;;;;;2.73;2.53;;;3.10;99.90;;;;;;5063811;28;20457;-61
2024/01/13 10:22:08;;;;;;;3.20;2.73;;;3.00;99.90;;;;;;5061475;28;20289;-61
2024/01/13 10:24:34;;;;;;;2.40;2.20;;;3.00;99.90;;;;;;5063561;28;20426;-61
2024/01/13 10:27:01;;;;;;;4.23;3.10;;;3.10;99.90;;;;;;5059424;28;20413;-59
2024/01/13 10:29:28;;;;;;;3.20;2.90;;;3.10;99.90;;;;;;5052357;28;21005;-61
2024/01/13 10:31:54;;;;;;;3.17;2.60;;;3.10;99.90;;;;;;5061246;28;20500;-61
2024/01/13 10:34:20;;;;;;;2.57;2.37;;;3.10;99.90;;;;;;5066061;28;20443;-61
2024/01/13 10:36:46;;;;;;;3.00;2.80;;;3.10;99.90;;;;;;5066202;28;20988;-61
2024/01/13 10:39:12;;;;;;;2.63;2.43;;;3.00;99.90;;;;;;5049396;28;20507;-61
2024/01/13 10:41:45;;;;;;;2.90;2.60;;;3.00;99.90;;;;;;5069775;28;20697;-61
2024/01/13 10:44:16;;;;;;;2.77;2.57;;;3.00;99.90;;;;;;5057592;28;20444;-61
2024/01/13 10:46:48;;;;;;;2.33;2.13;;;3.00;99.90;;;;;;5056067;28;20409;-61
2024/01/13 10:49:27;;;;;;;3.10;2.80;;;3.00;99.90;;;;;;5065223;28;20963;-61
2024/01/13 10:51:58;;;;;;;2.87;2.60;;;3.00;99.90;;;;;;5045033;28;20417;-61
2024/01/13 10:54:26;;;;;;;2.97;2.70;;;2.80;99.90;;;;;;5064887;28;20452;-61
2024/01/13 10:56:53;;;;;;;3.00;2.70;;;2.90;99.90;;;;;;5061196;28;20418;-61
2024/01/13 10:59:19;;;;;;;2.30;2.10;;;2.90;99.90;;;;;;5051435;28;20441;-62
2024/01/13 11:01:47;;;;;;;2.33;2.13;;;2.80;99.90;;;;;;5057630;28;20797;-62
2024/01/13 11:04:14;;;;;;;3.17;2.57;;;2.90;99.90;;;;;;5053750;28;20889;-62
2024/01/13 11:06:41;;;;;;;2.23;1.90;;;2.90;99.90;;;;;;5066097;28;20927;-62
2024/01/13 11:09:09;;;;;;;2.63;2.13;;;2.80;99.90;;;;;;5046945;28;20811;-61
2024/01/13 11:11:41;;;;;;;2.40;2.20;;;2.80;99.90;;;;;;5058148;28;20417;-62
2024/01/13 11:14:11;;;;;;;5.77;2.53;;;2.80;99.90;;;;;;5051967;28;20466;-62
2024/01/13 11:16:38;;;;;;;3.80;2.43;;;2.70;99.90;;;;;;5069738;28;20478;-63
2024/01/13 11:19:06;;;;;;;3.40;3.10;;;2.70;99.90;;;;;;5052304;28;20464;-61
2024/01/13 11:21:32;;;;;;;2.50;2.30;;;2.70;99.90;;;;;;5054189;28;20487;-61
2024/01/13 11:24:10;;;;;;;3.07;2.77;;;2.70;99.90;;;;;;5052834;28;20417;-63
2024/01/13 11:26:46;;;;;;;2.73;2.53;;;2.70;99.90;;;;;;5059707;28;20866;-61
2024/01/13 11:29:24;;;;;;;2.63;2.13;;;2.70;99.90;;;;;;5058434;28;20413;-60
2024/01/13 11:31:58;;;;;;;3.30;3.10;;;2.70;99.90;;;;;;5057574;28;20786;-61
2024/01/13 11:34:24;;;;;;;3.57;2.70;;;2.70;99.90;;;;;;5049947;28;20453;-61
2024/01/13 11:36:51;;;;;;;2.90;2.70;;;2.90;99.90;;;;;;5054148;28;21227;-61
2024/01/13 11:39:20;;;;;;;3.30;2.73;;;2.90;99.90;;;;;;5064221;28;20460;-61
2024/01/13 11:41:56;;;;;;;2.07;1.87;;;2.80;99.90;;;;;;5051883;28;20456;-62
2024/01/13 11:44:36;;;;;;;2.57;2.30;;;2.70;99.90;;;;;;5044761;28;20518;-60
2024/01/13 11:47:05;;;;;;;2.77;2.50;;;2.70;99.90;;;;;;5055011;28;20428;-61
2024/01/13 11:49:31;;;;;;;2.50;2.30;;;2.70;99.90;;;;;;5056715;28;20410;-60
2024/01/13 11:51:58;;;;;;;2.27;2.03;;;2.70;99.90;;;;;;5062476;28;20421;-60
2024/01/13 11:54:28;;;;;;;4.20;2.53;;;2.70;99.90;;;;;;5051846;28;20453;-60
2024/01/13 11:56:56;;;;;;;2.67;2.47;;;2.70;99.90;;;;;;5057929;28;20422;-61
2024/01/13 11:59:21;;;;;;;2.47;2.27;;;2.70;99.90;;;;;;5052998;28;20413;-61
2024/01/13 12:01:48;;;;;;;4.37;2.80;;;2.70;99.90;;;;;;5057377;28;20468;-61
2024/01/13 12:04:15;;;;;;;3.00;2.63;;;2.80;99.90;;;;;;5063368;28;20181;-64
2024/01/13 12:06:43;;;;;;;2.30;2.00;;;2.70;99.90;;;;;;5035576;28;20432;-66
2024/01/13 12:09:10;;;;;;;2.97;2.60;;;2.70;99.90;;;;;;5055909;28;20459;-61
2024/01/13 12:11:36;;;;;;;2.20;2.00;;;2.80;99.90;;;;;;5054296;28;20879;-61
2024/01/13 12:14:03;;;;;;;2.37;2.20;;;2.80;99.90;;;;;;5058934;28;20520;-60
2024/01/13 12:16:29;;;;;;;2.27;2.07;;;2.90;99.90;;;;;;5053240;28;20522;-61
2024/01/13 12:18:55;;;;;;;2.27;2.07;;;2.70;99.90;;;;;;5053486;28;20413;-61
2024/01/13 12:21:22;;;;;;;2.27;2.10;;;2.80;99.90;;;;;;5060645;28;20848;-61
2024/01/13 12:23:48;;;;;;;2.33;2.13;;;2.90;99.90;;;;;;5050830;28;20744;-61
2024/01/13 12:26:13;;;;;;;2.03;1.93;;;2.90;99.90;;;;;;5053444;28;20516;-61
2024/01/13 12:28:42;;;;;;;2.63;2.33;;;2.90;99.90;;;;;;5060976;28;20174;-61
2024/01/13 12:31:09;;;;;;;2.50;2.20;;;2.90;99.90;;;;;;5059922;28;20183;-61
2024/01/13 12:33:35;;;;;;;4.00;2.87;;;2.90;99.90;;;;;;5060260;28;20441;-60
2024/01/13 12:36:02;;;;;;;3.00;2.50;;;2.90;99.90;;;;;;5055864;28;20522;-62
2024/01/13 12:38:29;;;;;;;2.60;2.07;;;3.00;99.90;;;;;;5049244;28;20660;-60
2024/01/13 12:40:55;;;;;;;2.13;2.03;;;2.90;99.90;;;;;;5051228;28;20465;-61
2024/01/13 12:43:21;;;;;;;3.67;2.20;;;2.90;99.90;;;;;;5061427;28;20935;-61
2024/01/13 12:45:49;;;;;;;5.07;3.03;;;2.90;99.90;;;;;;5067303;28;20435;-61
2024/01/13 12:48:16;;;;;;;2.27;2.17;;;3.00;99.90;;;;;;5055400;28;20413;-60
2024/01/13 12:50:42;;;;;;;3.17;2.53;;;2.80;99.90;;;;;;5051214;28;20418;-60
2024/01/13 12:53:08;;;;;;;2.20;2.10;;;2.80;99.90;;;;;;5062421;28;20420;-61